Time;durP1;ratioP1;P1;durP2;ratioP2;P2;SDS_P1;SDS_P2;PMS_P1;PMS_P2;Temp;Humidity;BMP_temperature;BMP_pressure;BME280_temperature;BME280_humidity;BME280_pressure;Samples;Min_cycle;Max_cycle;Signal;HPM_P1;HPM_P2
2023/07/17 00:00:51;;;;;;;12.85;2.55;;;16.50;99.90;;;;;;5029935;28;20033;-84
2023/07/17 00:03:17;;;;;;;13.63;2.70;;;16.40;99.90;;;;;;5047804;28;20125;-85
2023/07/17 00:05:43;;;;;;;15.35;3.20;;;16.50;99.90;;;;;;5063685;28;20029;-85
2023/07/17 00:08:10;;;;;;;13.77;2.63;;;16.40;99.90;;;;;;5031381;28;20187;-85
2023/07/17 00:10:38;;;;;;;13.68;2.72;;;16.40;99.90;;;;;;5063497;28;20044;-84
2023/07/17 00:13:04;;;;;;;14.27;2.80;;;16.40;99.90;;;;;;5031400;28;20064;-84
2023/07/17 00:15:30;;;;;;;15.23;3.20;;;16.40;99.90;;;;;;5048792;28;20112;-85
2023/07/17 00:17:55;;;;;;;13.70;3.13;;;16.40;99.90;;;;;;5062766;28;20519;-85
2023/07/17 00:20:22;;;;;;;13.38;3.17;;;16.40;99.90;;;;;;5046243;28;20094;-85
2023/07/17 00:22:47;;;;;;;15.27;2.83;;;16.40;99.90;;;;;;5031187;28;20437;-84
2023/07/17 00:25:13;;;;;;;13.98;2.55;;;16.30;99.90;;;;;;5045181;28;20048;-84
2023/07/17 00:27:39;;;;;;;14.48;3.13;;;16.40;99.90;;;;;;5063212;28;20057;-85
2023/07/17 00:30:05;;;;;;;20.42;3.20;;;16.30;99.90;;;;;;5030063;28;20048;-84
2023/07/17 00:32:31;;;;;;;13.40;2.78;;;16.30;99.90;;;;;;5063671;28;20551;-84
2023/07/17 00:34:56;;;;;;;14.57;2.63;;;16.40;99.90;;;;;;5046414;28;20190;-84
2023/07/17 00:37:22;;;;;;;22.83;3.47;;;16.40;99.90;;;;;;5062474;28;20037;-85
2023/07/17 00:39:49;;;;;;;11.63;2.83;;;16.40;99.90;;;;;;5047410;28;20075;-84
2023/07/17 00:42:15;;;;;;;14.70;3.38;;;16.50;99.90;;;;;;5030571;28;20215;-85
2023/07/17 00:44:41;;;;;;;12.80;2.95;;;16.50;99.90;;;;;;5048106;28;20569;-85
2023/07/17 00:47:08;;;;;;;12.13;2.90;;;16.50;99.90;;;;;;5048368;28;20060;-85
2023/07/17 00:49:34;;;;;;;11.68;2.50;;;16.50;99.90;;;;;;5046814;28;20049;-84
2023/07/17 00:52:01;;;;;;;16.98;3.28;;;16.50;99.90;;;;;;5046627;28;20057;-84
2023/07/17 00:54:28;;;;;;;11.70;2.88;;;16.50;99.90;;;;;;5046985;28;20036;-84
2023/07/17 00:56:56;;;;;;;10.88;2.40;;;16.50;99.90;;;;;;5046982;28;20124;-85
2023/07/17 00:59:22;;;;;;;13.60;2.80;;;16.50;99.90;;;;;;5079256;28;20150;-85
2023/07/17 01:01:48;;;;;;;13.52;2.80;;;16.40;99.90;;;;;;5048252;28;20106;-85
2023/07/17 01:04:14;;;;;;;11.55;2.53;;;16.30;99.90;;;;;;5030750;28;20470;-85
2023/07/17 01:06:40;;;;;;;7.38;2.05;;;16.20;99.90;;;;;;5045641;28;20098;-85
2023/07/17 01:09:08;;;;;;;7.10;1.83;;;16.10;99.90;;;;;;5030909;28;20060;-85
2023/07/17 01:11:34;;;;;;;5.32;2.00;;;16.00;99.90;;;;;;5029098;28;20045;-85
2023/07/17 01:14:00;;;;;;;9.32;2.33;;;16.00;99.90;;;;;;5030092;28;20369;-85
2023/07/17 01:16:29;;;;;;;7.80;1.73;;;15.90;99.90;;;;;;5046028;28;20041;-85
2023/07/17 01:18:54;;;;;;;7.10;2.10;;;15.90;99.90;;;;;;5045819;28;20319;-85
2023/07/17 01:21:25;;;;;;;7.43;2.30;;;15.80;99.90;;;;;;5047498;28;20041;-85
2023/07/17 01:23:52;;;;;;;9.98;2.40;;;15.80;99.90;;;;;;5030861;28;20052;-84
2023/07/17 01:26:19;;;;;;;8.70;2.40;;;15.70;99.90;;;;;;5029674;28;20045;-85
2023/07/17 01:28:45;;;;;;;9.90;1.60;;;15.70;99.90;;;;;;5045869;28;20064;-84
2023/07/17 01:31:12;;;;;;;12.02;2.17;;;15.70;99.90;;;;;;5030101;28;20084;-85
2023/07/17 01:33:41;;;;;;;8.45;2.15;;;15.60;99.90;;;;;;5057591;28;20045;-85
2023/07/17 01:36:07;;;;;;;13.43;2.92;;;15.60;99.90;;;;;;5030197;28;20049;-85
2023/07/17 01:38:36;;;;;;;6.95;2.00;;;15.60;99.90;;;;;;5047176;28;20450;-85
2023/07/17 01:41:01;;;;;;;9.10;2.53;;;15.60;99.90;;;;;;5028297;28;20045;-85
2023/07/17 01:43:27;;;;;;;8.38;2.28;;;15.60;99.90;;;;;;5045950;28;20048;-84
2023/07/17 01:45:53;;;;;;;9.25;2.35;;;15.60;99.90;;;;;;5079457;28;20048;-85
2023/07/17 01:48:18;;;;;;;8.50;2.42;;;15.60;99.90;;;;;;5079020;28;20045;-85
2023/07/17 01:50:45;;;;;;;11.18;2.35;;;15.50;99.90;;;;;;5078872;28;20044;-85
2023/07/17 01:53:11;;;;;;;8.45;2.65;;;15.50;99.90;;;;;;5030123;28;20052;-85
2023/07/17 01:55:37;;;;;;;13.55;2.88;;;15.50;99.90;;;;;;5045973;28;20053;-85
2023/07/17 01:58:03;;;;;;;12.55;2.40;;;15.50;99.90;;;;;;5030065;28;20382;-85
2023/07/17 02:00:29;;;;;;;12.07;2.67;;;15.50;99.90;;;;;;5046979;28;20059;-85
2023/07/17 02:02:55;;;;;;;9.38;2.60;;;15.50;99.90;;;;;;5061857;28;20037;-85
2023/07/17 02:05:20;;;;;;;7.20;2.00;;;15.50;99.90;;;;;;5079439;28;20049;-84
2023/07/17 02:07:46;;;;;;;10.43;2.70;;;15.50;99.90;;;;;;5028952;28;20076;-85
2023/07/17 02:10:12;;;;;;;9.80;2.63;;;15.50;99.90;;;;;;5028889;28;20041;-85
2023/07/17 02:12:38;;;;;;;7.78;2.13;;;15.50;99.90;;;;;;5028667;28;20447;-85
2023/07/17 02:15:06;;;;;;;11.73;3.03;;;15.50;99.90;;;;;;5028983;28;20045;-86
2023/07/17 02:17:32;;;;;;;8.18;2.35;;;15.50;99.90;;;;;;5044882;28;20136;-86
2023/07/17 02:19:58;;;;;;;10.55;2.63;;;15.50;99.90;;;;;;5061922;28;20487;-84
2023/07/17 02:22:24;;;;;;;12.68;2.60;;;15.50;99.90;;;;;;5058182;28;20091;-84
2023/07/17 02:24:50;;;;;;;7.93;2.47;;;15.40;99.90;;;;;;5028343;28;20037;-85
2023/07/17 02:27:16;;;;;;;10.52;2.42;;;15.40;99.90;;;;;;5078798;28;20118;-85
2023/07/17 02:29:42;;;;;;;10.65;2.38;;;15.40;99.90;;;;;;5061064;28;20389;-85
2023/07/17 02:32:08;;;;;;;12.15;2.92;;;15.30;99.90;;;;;;5044853;28;20103;-84
2023/07/17 02:34:33;;;;;;;12.48;2.58;;;15.30;99.90;;;;;;5045210;28;20128;-85
2023/07/17 02:36:59;;;;;;;10.60;2.90;;;15.30;99.90;;;;;;5046638;28;20069;-85
2023/07/17 02:39:25;;;;;;;10.95;2.47;;;15.30;99.90;;;;;;5044085;28;20044;-85
2023/07/17 02:41:51;;;;;;;10.15;2.72;;;15.30;99.90;;;;;;5045372;28;20121;-85
2023/07/17 02:44:17;;;;;;;10.35;2.53;;;15.20;99.90;;;;;;5049865;28;20684;-85
2023/07/17 02:46:43;;;;;;;12.23;3.25;;;15.20;99.90;;;;;;5028047;28;20041;-85
2023/07/17 02:49:11;;;;;;;10.93;2.67;;;15.20;99.90;;;;;;5045410;28;20083;-85
2023/07/17 02:51:37;;;;;;;10.95;2.78;;;15.20;99.90;;;;;;5028014;28;20534;-85
2023/07/17 02:54:03;;;;;;;14.95;3.55;;;15.10;99.90;;;;;;5061831;28;20085;-85
2023/07/17 02:56:29;;;;;;;10.77;2.88;;;15.10;99.90;;;;;;5061198;28;20127;-85
2023/07/17 02:58:55;;;;;;;10.77;3.08;;;15.10;99.90;;;;;;5045017;28;20048;-85
2023/07/17 03:01:20;;;;;;;10.93;3.40;;;15.10;99.90;;;;;;5044282;28;20048;-85
2023/07/17 03:03:47;;;;;;;17.80;3.47;;;15.10;99.90;;;;;;5044793;28;20049;-84
2023/07/17 03:06:13;;;;;;;7.95;2.75;;;15.10;99.90;;;;;;5044644;28;20048;-84
2023/07/17 03:08:38;;;;;;;14.95;3.35;;;15.10;99.90;;;;;;5044401;28;20040;-84
2023/07/17 03:11:04;;;;;;;11.10;3.08;;;15.10;99.90;;;;;;5028390;28;20140;-84
2023/07/17 03:13:30;;;;;;;10.32;2.90;;;15.10;99.90;;;;;;5044032;28;20123;-84
2023/07/17 03:16:00;;;;;;;13.07;3.20;;;15.10;99.90;;;;;;5061275;28;20041;-85
2023/07/17 03:18:26;;;;;;;10.45;3.30;;;15.10;99.90;;;;;;5045152;28;20278;-85
2023/07/17 03:20:54;;;;;;;12.50;3.30;;;15.10;99.90;;;;;;5045946;28;20037;-85
2023/07/17 03:23:20;;;;;;;10.77;2.55;;;15.00;99.90;;;;;;5079134;28;20044;-85
2023/07/17 03:25:46;;;;;;;9.45;3.05;;;15.00;99.90;;;;;;5060979;28;20087;-85
2023/07/17 03:28:12;;;;;;;11.40;3.15;;;15.00;99.90;;;;;;5078470;28;20507;-84
2023/07/17 03:30:39;;;;;;;10.02;3.28;;;15.10;99.90;;;;;;5060415;28;20044;-85
2023/07/17 03:33:05;;;;;;;14.05;3.25;;;15.00;99.90;;;;;;5044517;28;20049;-85
2023/07/17 03:35:31;;;;;;;10.15;3.15;;;15.10;99.90;;;;;;5029262;28;20048;-85
2023/07/17 03:37:56;;;;;;;14.07;3.08;;;15.10;99.90;;;;;;5048435;28;20047;-85
2023/07/17 03:40:22;;;;;;;9.38;2.42;;;15.10;99.90;;;;;;5063983;28;20065;-85
2023/07/17 03:42:48;;;;;;;10.98;2.83;;;15.10;99.90;;;;;;5047748;28;20134;-85
2023/07/17 03:45:13;;;;;;;9.90;2.78;;;15.10;99.90;;;;;;5082442;28;20389;-84
2023/07/17 03:47:39;;;;;;;10.50;2.80;;;15.10;99.90;;;;;;5048458;28;20051;-84
2023/07/17 03:50:05;;;;;;;12.63;2.95;;;15.10;99.90;;;;;;5048286;28;20044;-85
2023/07/17 03:52:31;;;;;;;10.85;2.72;;;15.10;99.90;;;;;;5049842;28;20136;-85
2023/07/17 03:54:56;;;;;;;11.32;2.83;;;15.10;99.90;;;;;;5048614;28;20137;-85
2023/07/17 03:57:22;;;;;;;10.77;2.88;;;15.10;99.90;;;;;;5064353;28;20449;-85
2023/07/17 03:59:53;;;;;;;16.88;3.35;;;15.10;99.90;;;;;;5048811;28;20041;-85
2023/07/17 04:02:20;;;;;;;10.38;2.60;;;15.10;99.90;;;;;;5046587;28;20487;-84
2023/07/17 04:04:46;;;;;;;10.55;2.20;;;15.00;99.90;;;;;;5047979;28;20504;-85
2023/07/17 04:07:12;;;;;;;14.30;2.92;;;15.00;99.90;;;;;;5030699;28;20041;-84
2023/07/17 04:09:38;;;;;;;16.02;3.40;;;14.90;99.90;;;;;;5047474;28;20044;-85
2023/07/17 04:12:05;;;;;;;8.77;2.03;;;14.90;99.90;;;;;;5063271;28;20515;-85
2023/07/17 04:14:32;;;;;;;7.72;2.42;;;14.90;99.90;;;;;;5048004;28;20044;-85
2023/07/17 04:17:01;;;;;;;13.82;3.00;;;14.90;99.90;;;;;;5045473;28;20152;-84
2023/07/17 04:19:27;;;;;;;12.27;2.78;;;14.80;99.90;;;;;;5031698;28;20040;-84
2023/07/17 04:21:53;;;;;;;13.00;3.65;;;14.90;99.90;;;;;;5030867;28;20488;-84
2023/07/17 04:24:19;;;;;;;13.20;2.85;;;14.80;99.90;;;;;;5063781;28;20056;-85
2023/07/17 04:26:45;;;;;;;11.25;2.63;;;14.90;99.90;;;;;;5080578;28;20045;-85
2023/07/17 04:29:10;;;;;;;12.90;2.78;;;14.90;99.90;;;;;;5046674;28;20138;-84
2023/07/17 04:31:36;;;;;;;14.85;2.85;;;14.90;99.90;;;;;;5027186;28;20128;-84
2023/07/17 04:34:02;;;;;;;14.15;2.50;;;15.00;99.90;;;;;;5043474;28;20134;-85
2023/07/17 04:36:28;;;;;;;12.52;2.83;;;15.00;99.90;;;;;;5040724;28;20076;-84
2023/07/17 04:38:54;;;;;;;9.77;2.70;;;15.00;99.90;;;;;;5042617;28;20051;-84
2023/07/17 04:41:19;;;;;;;9.50;2.38;;;15.10;99.90;;;;;;5060770;28;20033;-84
2023/07/17 04:43:45;;;;;;;10.45;2.85;;;15.10;99.90;;;;;;5046948;28;20044;-85
2023/07/17 04:46:11;;;;;;;10.82;2.67;;;15.20;99.90;;;;;;5063854;28;20082;-84
2023/07/17 04:48:37;;;;;;;11.40;2.42;;;15.20;99.90;;;;;;5048471;28;20395;-84
2023/07/17 04:51:03;;;;;;;11.68;2.80;;;15.20;99.90;;;;;;5048163;28;20516;-84
2023/07/17 04:53:28;;;;;;;12.77;2.70;;;15.30;99.90;;;;;;5046515;28;20041;-84
2023/07/17 04:55:54;;;;;;;11.20;2.67;;;15.30;99.90;;;;;;5045972;28;20503;-85
2023/07/17 04:58:20;;;;;;;13.35;2.70;;;15.40;99.90;;;;;;5044936;28;20040;-84
2023/07/17 05:00:47;;;;;;;9.60;2.63;;;15.40;99.90;;;;;;5043613;28;20063;-84
2023/07/17 05:03:16;;;;;;;13.30;3.05;;;15.50;99.90;;;;;;5079303;28;20588;-85
2023/07/17 05:05:48;;;;;;;12.27;2.80;;;15.50;99.90;;;;;;5059939;28;20342;-84
2023/07/17 05:08:13;;;;;;;11.80;3.00;;;15.60;99.90;;;;;;5079229;28;20055;-85
2023/07/17 05:10:39;;;;;;;11.70;2.60;;;15.70;99.90;;;;;;5077811;28;20037;-85
2023/07/17 05:13:05;;;;;;;16.33;3.25;;;15.70;99.90;;;;;;5036511;28;20143;-85
2023/07/17 05:15:30;;;;;;;13.82;2.83;;;15.80;99.90;;;;;;5062120;28;20075;-84
2023/07/17 05:17:56;;;;;;;12.25;3.03;;;15.90;99.90;;;;;;5038820;28;20535;-85
2023/07/17 05:20:22;;;;;;;10.30;2.70;;;15.90;99.90;;;;;;5045488;28;20044;-84
2023/07/17 05:22:47;;;;;;;12.88;3.10;;;16.00;99.90;;;;;;5046354;28;20492;-84
2023/07/17 05:25:13;;;;;;;13.93;2.83;;;16.10;99.90;;;;;;5046754;28;20458;-84
2023/07/17 05:27:39;;;;;;;15.43;3.28;;;16.20;99.90;;;;;;5060987;28;20060;-84
2023/07/17 05:30:06;;;;;;;11.43;2.95;;;16.20;99.90;;;;;;5030166;28;20174;-85
2023/07/17 05:32:32;;;;;;;12.50;2.88;;;16.30;99.90;;;;;;5047985;28;20037;-85
2023/07/17 05:34:58;;;;;;;10.02;2.90;;;16.40;99.90;;;;;;5031049;28;20152;-85
2023/07/17 05:37:24;;;;;;;10.88;3.20;;;16.30;99.90;;;;;;5080021;28;20112;-85
2023/07/17 05:39:50;;;;;;;13.75;3.72;;;16.40;99.90;;;;;;5039066;28;20099;-85
2023/07/17 05:42:15;;;;;;;11.75;3.15;;;16.40;99.90;;;;;;5058965;28;20044;-85
2023/07/17 05:44:41;;;;;;;15.55;3.50;;;16.40;99.90;;;;;;5062331;28;20048;-84
2023/07/17 05:47:07;;;;;;;13.30;3.30;;;16.50;99.90;;;;;;5078599;28;20081;-85
2023/07/17 05:49:33;;;;;;;13.48;3.13;;;16.60;99.90;;;;;;5062483;28;20140;-84
2023/07/17 05:51:59;;;;;;;13.73;3.55;;;16.70;99.90;;;;;;5025298;28;20128;-86
2023/07/17 05:54:25;;;;;;;13.52;3.30;;;16.80;99.90;;;;;;5044584;28;20049;-85
2023/07/17 05:56:50;;;;;;;13.35;3.30;;;16.90;99.90;;;;;;5062516;28;20036;-86
2023/07/17 05:59:16;;;;;;;15.40;3.50;;;17.00;99.90;;;;;;5046937;28;20400;-85
2023/07/17 06:01:42;;;;;;;15.63;3.40;;;17.10;99.90;;;;;;5061156;28;20070;-85
2023/07/17 06:04:08;;;;;;;13.48;3.42;;;17.20;99.90;;;;;;5050954;28;20072;-84
2023/07/17 06:06:34;;;;;;;17.58;3.72;;;17.10;99.90;;;;;;5062550;28;20551;-85
2023/07/17 06:09:01;;;;;;;12.13;3.70;;;17.00;99.90;;;;;;5033941;28;20095;-84
2023/07/17 06:11:27;;;;;;;16.23;3.75;;;17.00;99.90;;;;;;5045369;28;20456;-85
2023/07/17 06:13:57;;;;;;;12.65;3.45;;;16.90;99.90;;;;;;5079721;28;20123;-89
2023/07/17 06:16:23;;;;;;;17.77;4.63;;;16.90;99.90;;;;;;5061681;28;20037;-85
2023/07/17 06:18:48;;;;;;;14.32;3.63;;;16.90;99.90;;;;;;5046442;28;20041;-84
2023/07/17 06:21:14;;;;;;;14.55;4.22;;;17.10;99.90;;;;;;5045853;28;20415;-84
2023/07/17 06:23:40;;;;;;;11.90;3.42;;;17.20;99.90;;;;;;5045362;28;20061;-84
2023/07/17 06:26:06;;;;;;;13.32;4.53;;;17.40;99.90;;;;;;5038930;28;20047;-84
2023/07/17 06:28:32;;;;;;;15.40;3.90;;;17.60;99.90;;;;;;5062142;28;20430;-87
2023/07/17 06:30:58;;;;;;;17.02;4.38;;;17.80;99.90;;;;;;5054387;28;20055;-83
2023/07/17 06:33:24;;;;;;;12.60;3.85;;;17.90;99.90;;;;;;5029223;28;20102;-84
2023/07/17 06:35:50;;;;;;;12.82;4.00;;;18.10;99.90;;;;;;5078847;28;20472;-83
2023/07/17 06:38:15;;;;;;;15.10;4.90;;;18.20;99.90;;;;;;5029828;28;20083;-84
2023/07/17 06:40:41;;;;;;;17.75;4.00;;;18.30;99.90;;;;;;5043645;28;20425;-82
2023/07/17 06:43:08;;;;;;;17.73;4.10;;;18.40;99.90;;;;;;5078940;28;20051;-84
2023/07/17 06:45:34;;;;;;;12.90;4.00;;;18.50;99.90;;;;;;5061542;28;20400;-84
2023/07/17 06:48:00;;;;;;;19.73;4.43;;;18.40;99.90;;;;;;5045247;28;20033;-83
2023/07/17 06:50:26;;;;;;;18.65;4.72;;;18.50;99.90;;;;;;5051093;28;20103;-84
2023/07/17 06:52:52;;;;;;;16.63;4.78;;;18.60;99.90;;;;;;5021426;28;20049;-84
2023/07/17 06:55:17;;;;;;;25.48;5.55;;;18.80;99.90;;;;;;5078175;28;20478;-84
2023/07/17 06:57:43;;;;;;;26.15;5.93;;;19.00;99.90;;;;;;5026041;28;20041;-84
2023/07/17 07:00:09;;;;;;;18.33;5.38;;;19.20;99.90;;;;;;5046454;28;20131;-84
2023/07/17 07:02:35;;;;;;;17.70;5.25;;;19.20;99.90;;;;;;5044918;28;20076;-83
2023/07/17 07:05:01;;;;;;;20.45;5.53;;;19.30;99.90;;;;;;5043361;28;20463;-84
2023/07/17 07:07:27;;;;;;;14.43;4.10;;;19.30;99.90;;;;;;5061499;28;20595;-84
2023/07/17 07:09:52;;;;;;;13.80;4.22;;;19.40;99.90;;;;;;5044052;28;20061;-83
2023/07/17 07:12:18;;;;;;;12.23;3.80;;;19.40;99.90;;;;;;5048334;28;20080;-84
2023/07/17 07:14:44;;;;;;;16.23;4.18;;;19.20;99.90;;;;;;5055818;28;20716;-86
2023/07/17 07:17:10;;;;;;;14.90;4.35;;;18.90;99.90;;;;;;5038830;28;20045;-84
2023/07/17 07:19:36;;;;;;;13.82;4.10;;;18.70;99.90;;;;;;5080574;28;20067;-84
2023/07/17 07:22:01;;;;;;;14.82;4.55;;;18.60;99.90;;;;;;5047537;28;20098;-84
2023/07/17 07:24:27;;;;;;;16.85;3.88;;;18.50;99.90;;;;;;5071334;28;20049;-84
2023/07/17 07:26:53;;;;;;;15.20;4.25;;;18.30;99.90;;;;;;5048308;28;20041;-85
2023/07/17 07:29:18;;;;;;;15.02;4.13;;;18.30;99.90;;;;;;5082443;28;20496;-85
2023/07/17 07:31:44;;;;;;;12.40;4.13;;;18.30;99.90;;;;;;5048668;28;20415;-84
2023/07/17 07:34:10;;;;;;;9.10;3.03;;;18.30;99.90;;;;;;5082433;28;20123;-85
2023/07/17 07:36:36;;;;;;;12.93;3.78;;;18.30;99.90;;;;;;5037921;28;20041;-86
2023/07/17 07:39:05;;;;;;;11.57;3.38;;;18.00;99.90;;;;;;5071543;28;20045;-86
2023/07/17 07:41:35;;;;;;;11.57;3.58;;;17.80;99.90;;;;;;5047653;28;20052;-84
2023/07/17 07:44:01;;;;;;;9.13;3.22;;;17.50;99.90;;;;;;5070717;28;20485;-84
2023/07/17 07:46:27;;;;;;;9.75;3.00;;;17.40;99.90;;;;;;5078840;28;20048;-84
2023/07/17 07:48:53;;;;;;;9.68;3.42;;;17.20;99.90;;;;;;5050102;28;20400;-84
2023/07/17 07:51:18;;;;;;;13.00;4.05;;;17.10;99.90;;;;;;5049373;28;20044;-84
2023/07/17 07:53:44;;;;;;;13.27;3.40;;;17.00;99.90;;;;;;5047255;28;20053;-84
2023/07/17 07:56:10;;;;;;;11.60;3.33;;;17.00;99.90;;;;;;5036285;28;20041;-84
2023/07/17 07:58:35;;;;;;;10.93;3.55;;;17.00;99.90;;;;;;5054698;28;20188;-84
2023/07/17 08:01:01;;;;;;;12.38;3.65;;;17.20;99.90;;;;;;5080756;28;20037;-85
2023/07/17 08:03:27;;;;;;;15.02;3.72;;;17.30;99.90;;;;;;5081413;28;20052;-84
2023/07/17 08:05:55;;;;;;;11.60;3.53;;;17.40;99.90;;;;;;5048018;28;20033;-84
2023/07/17 08:08:20;;;;;;;12.40;3.80;;;17.50;99.90;;;;;;5063956;28;20078;-84
2023/07/17 08:10:46;;;;;;;13.27;4.53;;;17.60;99.90;;;;;;5025956;28;20124;-84
2023/07/17 08:13:12;;;;;;;14.57;4.25;;;17.80;99.90;;;;;;5082164;28;20182;-83
2023/07/17 08:15:38;;;;;;;15.65;4.15;;;18.00;99.90;;;;;;5078677;28;20098;-83
2023/07/17 08:18:04;;;;;;;15.25;3.97;;;18.20;99.90;;;;;;5081055;28;20145;-87
2023/07/17 08:20:29;;;;;;;13.73;3.67;;;18.50;99.90;;;;;;5081021;28;20041;-85
2023/07/17 08:22:55;;;;;;;12.82;3.70;;;18.60;99.90;;;;;;5045748;28;20400;-84
2023/07/17 08:25:23;;;;;;;12.02;3.75;;;18.80;99.90;;;;;;5028784;28;20780;-84
2023/07/17 08:27:48;;;;;;;13.73;3.80;;;18.90;99.90;;;;;;5046773;28;20118;-83
2023/07/17 08:30:14;;;;;;;11.65;3.55;;;19.10;99.90;;;;;;5056110;28;20567;-84
2023/07/17 08:32:40;;;;;;;11.80;3.60;;;19.20;99.90;;;;;;5046984;28;20059;-84
2023/07/17 08:35:07;;;;;;;10.43;3.50;;;19.40;99.90;;;;;;5047342;28;20055;-84
2023/07/17 08:37:33;;;;;;;9.57;3.28;;;19.40;99.90;;;;;;5044735;28;20036;-84
2023/07/17 08:39:59;;;;;;;8.70;3.08;;;19.50;99.90;;;;;;5041796;28;20048;-85
2023/07/17 08:42:25;;;;;;;14.80;3.85;;;19.70;99.90;;;;;;5044185;28;20419;-84
2023/07/17 08:44:52;;;;;;;15.68;3.35;;;19.90;99.90;;;;;;5044358;28;20159;-85
2023/07/17 08:47:19;;;;;;;12.25;3.08;;;20.20;99.90;;;;;;5026981;28;20033;-85
2023/07/17 08:49:46;;;;;;;10.60;3.55;;;20.40;99.90;;;;;;5059157;28;20033;-84
2023/07/17 08:52:13;;;;;;;10.30;3.30;;;20.60;99.90;;;;;;5045934;28;20037;-84
2023/07/17 08:54:38;;;;;;;14.52;3.50;;;20.70;99.90;;;;;;5045902;28;20132;-83
2023/07/17 08:57:05;;;;;;;14.88;3.65;;;20.50;99.90;;;;;;5045105;28;20045;-83
2023/07/17 08:59:32;;;;;;;12.82;2.88;;;20.30;99.90;;;;;;5046838;28;20025;-84
2023/07/17 09:01:59;;;;;;;11.93;3.50;;;20.10;99.90;;;;;;5046117;28;20052;-84
2023/07/17 09:04:25;;;;;;;15.20;3.47;;;20.00;99.90;;;;;;5029601;28;20113;-84
2023/07/17 09:06:51;;;;;;;9.45;2.83;;;20.00;99.90;;;;;;5063949;28;20049;-84
2023/07/17 09:09:18;;;;;;;11.98;2.90;;;19.90;99.90;;;;;;5046805;28;20048;-84
2023/07/17 09:11:44;;;;;;;14.75;2.97;;;20.00;99.90;;;;;;5029495;28;20184;-84
2023/07/17 09:14:10;;;;;;;12.77;2.65;;;20.00;99.90;;;;;;5046064;28;20500;-84
2023/07/17 09:16:38;;;;;;;9.75;2.58;;;20.00;99.90;;;;;;5046212;28;20049;-84
2023/07/17 09:19:04;;;;;;;8.15;2.22;;;19.90;99.90;;;;;;5047587;28;20120;-84
2023/07/17 09:21:30;;;;;;;9.90;2.28;;;19.80;99.90;;;;;;5046789;28;20121;-85
2023/07/17 09:23:57;;;;;;;9.60;1.98;;;19.60;99.90;;;;;;5067380;28;20040;-84
2023/07/17 09:26:24;;;;;;;10.48;2.35;;;19.50;99.90;;;;;;5045395;28;20041;-83
2023/07/17 09:28:51;;;;;;;14.60;2.72;;;19.50;99.90;;;;;;5066929;28;20523;-84
2023/07/17 09:31:31;;;;;;;7.40;2.25;;;19.50;99.90;;;;;;5045984;28;20128;-84
2023/07/17 09:34:05;;;;;;;11.00;2.45;;;19.50;99.90;;;;;;5045683;28;20044;-84
2023/07/17 09:36:31;;;;;;;11.23;2.88;;;19.50;99.90;;;;;;5029558;28;20058;-84
2023/07/17 09:38:58;;;;;;;11.57;2.67;;;19.60;99.90;;;;;;5045106;28;20500;-84
2023/07/17 09:41:25;;;;;;;12.40;2.90;;;19.80;99.90;;;;;;5043470;28;20476;-84
2023/07/17 09:44:05;;;;;;;11.18;2.85;;;19.90;99.90;;;;;;5028541;28;20045;-84
2023/07/17 09:46:36;;;;;;;13.70;2.20;;;19.80;99.90;;;;;;5051686;28;20041;-84
2023/07/17 09:49:09;;;;;;;7.70;2.20;;;19.60;99.90;;;;;;5048076;28;20048;-83
2023/07/17 09:51:38;;;;;;;11.18;2.40;;;19.50;99.90;;;;;;5059104;28;20447;-83
2023/07/17 09:54:05;;;;;;;10.63;2.35;;;19.60;99.90;;;;;;5027087;28;20140;-83
2023/07/17 09:56:32;;;;;;;7.65;1.80;;;19.80;99.90;;;;;;5021525;28;20083;-83
2023/07/17 09:59:31;;;;;;;7.90;2.15;;;20.00;99.90;;;;;;5045488;28;20037;-83
2023/07/17 10:01:59;;;;;;;8.75;1.77;;;20.20;99.90;;;;;;5031701;28;20711;-85
2023/07/17 10:04:36;;;;;;;7.15;1.95;;;20.40;99.90;;;;;;5045677;28;20114;-82
2023/07/17 10:07:03;;;;;;;8.02;2.03;;;20.50;99.90;;;;;;5028454;28;20084;-85
2023/07/17 10:09:31;;;;;;;9.95;2.13;;;20.70;99.90;;;;;;5066516;28;20056;-84
2023/07/17 10:11:57;;;;;;;9.80;1.60;;;20.90;99.90;;;;;;5065707;28;20487;-84
2023/07/17 10:14:24;;;;;;;12.15;1.73;;;20.90;99.90;;;;;;5073724;28;20210;-84
2023/07/17 10:16:51;;;;;;;9.93;2.03;;;20.90;99.90;;;;;;5044262;28;20048;-85
2023/07/17 10:19:17;;;;;;;8.95;2.10;;;20.90;99.90;;;;;;5024439;28;20079;-84
2023/07/17 10:21:57;;;;;;;8.48;2.10;;;20.80;99.90;;;;;;5043244;28;20094;-83
2023/07/17 10:24:24;;;;;;;11.00;2.30;;;20.70;99.90;;;;;;5062023;28;20041;-84
2023/07/17 10:26:50;;;;;;;10.02;1.80;;;20.60;99.90;;;;;;5062338;28;20041;-85
2023/07/17 10:29:30;;;;;;;7.93;2.17;;;20.50;99.90;;;;;;5059739;28;20059;-84
2023/07/17 10:31:57;;;;;;;13.68;2.13;;;20.30;99.90;;;;;;5027028;28;20048;-84
2023/07/17 10:34:50;;;;;;;8.98;1.85;;;20.20;99.90;;;;;;5077885;28;20044;-85
2023/07/17 10:37:41;;;;;;;8.00;1.60;;;20.20;99.90;;;;;;5034217;28;20554;-85
2023/07/17 10:40:24;;;;;;;7.00;1.80;;;20.10;99.90;;;;;;5044690;28;20071;-84
2023/07/17 10:42:51;;;;;;;10.25;2.45;;;20.00;99.90;;;;;;5056847;28;20040;-85
2023/07/17 10:45:18;;;;;;;22.00;3.40;;;20.10;99.90;;;;;;5059368;28;20055;-85
2023/07/17 10:47:52;;;;;;;8.65;2.00;;;20.30;99.90;;;;;;5079424;28;20068;-83
2023/07/17 10:50:18;;;;;;;7.25;1.70;;;20.60;99.90;;;;;;5071736;28;20347;-84
2023/07/17 10:52:44;;;;;;;8.52;1.98;;;20.60;99.90;;;;;;5029090;28;20037;-84
2023/07/17 10:55:09;;;;;;;12.30;2.40;;;20.60;99.90;;;;;;5049090;28;20049;-84
2023/07/17 10:57:38;;;;;;;11.15;2.53;;;20.70;99.90;;;;;;5060952;28;20045;-84
2023/07/17 11:00:04;;;;;;;5.30;1.83;;;20.70;99.90;;;;;;5066897;28;20040;-84
2023/07/17 11:02:30;;;;;;;6.72;2.15;;;20.90;99.90;;;;;;5074276;28;20041;-85
2023/07/17 11:04:58;;;;;;;7.22;1.90;;;21.00;99.90;;;;;;5043439;28;20045;-85
2023/07/17 11:07:24;;;;;;;6.80;1.90;;;20.90;99.90;;;;;;5046750;28;20477;-83
2023/07/17 11:09:50;;;;;;;10.20;2.45;;;21.00;99.90;;;;;;5031535;28;20513;-84
2023/07/17 11:12:19;;;;;;;8.18;2.17;;;21.20;99.90;;;;;;5061645;28;20124;-84
2023/07/17 11:14:45;;;;;;;8.88;2.05;;;21.40;99.90;;;;;;5050035;28;20122;-83
2023/07/17 11:17:14;;;;;;;8.20;1.88;;;21.50;99.90;;;;;;5046560;28;20073;-84
2023/07/17 11:19:40;;;;;;;8.75;2.22;;;21.40;99.90;;;;;;5048651;28;20060;-84
2023/07/17 11:22:06;;;;;;;7.50;2.08;;;21.60;99.90;;;;;;5049821;28;20053;-84
2023/07/17 11:24:31;;;;;;;6.55;1.88;;;21.70;99.90;;;;;;5055300;28;20071;-83
2023/07/17 11:26:58;;;;;;;6.53;1.73;;;21.80;99.90;;;;;;5029024;28;20529;-84
2023/07/17 11:29:24;;;;;;;9.02;1.90;;;21.80;99.90;;;;;;5050669;28;20071;-84
2023/07/17 11:31:59;;;;;;;8.50;1.90;;;22.00;99.90;;;;;;5046555;28;20048;-83
2023/07/17 11:34:25;;;;;;;6.80;1.88;;;22.20;99.90;;;;;;5028046;28;20171;-83
2023/07/17 11:36:51;;;;;;;6.10;1.77;;;22.20;99.90;;;;;;5055845;28;20048;-81
2023/07/17 11:39:23;;;;;;;5.90;1.80;;;22.10;99.90;;;;;;5045660;28;20051;-83
2023/07/17 11:41:54;;;;;;;6.35;1.70;;;21.90;99.90;;;;;;5026359;28;20045;-84
2023/07/17 11:44:29;;;;;;;10.30;1.73;;;21.80;99.90;;;;;;5031988;28;20071;-83
2023/07/17 11:47:06;;;;;;;8.63;1.95;;;21.60;99.90;;;;;;5045793;28;20060;-84
2023/07/17 11:49:34;;;;;;;9.18;2.10;;;21.40;99.90;;;;;;5046439;28;20080;-84
2023/07/17 11:52:00;;;;;;;7.30;1.40;;;21.30;99.90;;;;;;5044341;28;20480;-84
2023/07/17 11:54:37;;;;;;;6.28;1.65;;;21.10;99.90;;;;;;5045812;28;20073;-83
2023/07/17 11:57:03;;;;;;;6.72;1.60;;;21.00;99.90;;;;;;5046049;28;20857;-83
2023/07/17 11:59:31;;;;;;;6.22;1.80;;;20.90;99.90;;;;;;5048256;28;20124;-83
2023/07/17 12:01:56;;;;;;;7.07;2.20;;;21.10;99.90;;;;;;5029797;28;20223;-84
2023/07/17 12:04:25;;;;;;;10.02;1.75;;;21.30;99.90;;;;;;5048764;28;20140;-85
2023/07/17 12:06:52;;;;;;;9.75;1.70;;;21.50;99.90;;;;;;5029795;28;20041;-84
2023/07/17 12:09:18;;;;;;;8.55;2.47;;;21.60;99.90;;;;;;5046208;28;20076;-85
2023/07/17 12:11:44;;;;;;;9.32;1.75;;;21.80;99.90;;;;;;5077270;28;20527;-82
2023/07/17 12:14:11;;;;;;;16.58;2.40;;;22.10;99.90;;;;;;5047428;28;20068;-83
2023/07/17 12:16:41;;;;;;;9.80;1.38;;;22.40;99.90;;;;;;5028948;28;20488;-83
2023/07/17 12:19:08;;;;;;;9.80;1.58;;;22.30;99.90;;;;;;5049639;28;20075;-83
2023/07/17 12:21:34;;;;;;;13.25;1.90;;;22.00;99.90;;;;;;5028885;28;20086;-84
2023/07/17 12:24:00;;;;;;;19.38;2.40;;;21.70;99.90;;;;;;5078214;28;20396;-84
2023/07/17 12:26:25;;;;;;;10.93;2.45;;;21.20;99.90;;;;;;5067326;28;20566;-84
2023/07/17 12:28:51;;;;;;;7.57;1.70;;;20.90;99.90;;;;;;5029933;28;20141;-83
2023/07/17 12:31:17;;;;;;;7.00;1.75;;;20.80;99.90;;;;;;5048773;28;20053;-85
2023/07/17 12:33:43;;;;;;;8.93;1.75;;;21.00;99.90;;;;;;5064611;28;20047;-83
2023/07/17 12:36:09;;;;;;;8.98;2.03;;;21.20;99.90;;;;;;5030790;28;20052;-83
2023/07/17 12:38:35;;;;;;;8.88;2.10;;;21.30;99.90;;;;;;5047028;28;20048;-84